createdAt,value
2022-12-14T00:02:38.201Z,70.04
2022-12-14T00:05:42.315Z,70.18
2022-12-14T00:08:46.385Z,69.62
2022-12-14T00:11:50.501Z,69.73
2022-12-14T00:14:54.573Z,69.05
2022-12-14T00:17:58.669Z,69.21
2022-12-14T00:21:02.647Z,69.37
2022-12-14T00:24:06.802Z,69.13
2022-12-14T00:27:10.707Z,69.78
2022-12-14T00:30:14.699Z,69.52
2022-12-14T00:33:18.741Z,69.89
2022-12-14T00:36:22.784Z,70.01
2022-12-14T00:39:26.821Z,70.15
2022-12-14T00:42:30.960Z,69.02
2022-12-14T00:45:35.247Z,70.58
2022-12-14T00:48:39.371Z,69.40
2022-12-14T00:51:43.220Z,69.61
2022-12-14T00:54:47.109Z,69.50
2022-12-14T00:57:51.269Z,69.80
2022-12-14T01:00:55.378Z,69.15
2022-12-14T01:03:59.622Z,70.93
2022-12-14T01:07:03.479Z,71.62
2022-12-14T01:10:07.413Z,71.72
2022-12-14T01:13:11.759Z,69.40
2022-12-14T01:16:16.002Z,69.64
2022-12-14T01:19:19.897Z,69.23
2022-12-14T01:22:25.068Z,69.24
2022-12-14T01:25:29.444Z,68.95
2022-12-14T01:28:33.540Z,70.83
2022-12-14T01:31:37.453Z,71.15
2022-12-14T01:34:41.324Z,69.82
2022-12-14T01:37:45.266Z,68.95
2022-12-14T01:40:52.653Z,70.04
2022-12-14T01:43:56.920Z,70.39
2022-12-14T01:47:00.840Z,69.53
2022-12-14T01:50:04.852Z,69.62
2022-12-14T01:53:08.931Z,69.71
2022-12-14T01:56:13.006Z,69.39
2022-12-14T01:59:16.945Z,68.00
2022-12-14T02:02:20.917Z,68.27
2022-12-14T02:05:24.918Z,69.97
2022-12-14T02:08:28.736Z,71.55
2022-12-14T02:11:32.751Z,73.20
2022-12-14T02:14:36.780Z,71.91
2022-12-14T02:17:40.763Z,71.03
2022-12-14T02:20:44.810Z,70.32
2022-12-14T02:23:48.772Z,70.32
2022-12-14T02:26:52.769Z,70.54
2022-12-14T02:29:56.839Z,70.58
2022-12-14T02:33:00.826Z,69.47
2022-12-14T02:36:04.775Z,70.28
2022-12-14T02:39:08.902Z,71.67
2022-12-14T02:42:12.858Z,72.65
2022-12-14T02:45:16.573Z,70.94
2022-12-14T02:48:20.483Z,70.20
2022-12-14T02:51:24.628Z,69.89
2022-12-14T02:54:28.778Z,69.22
2022-12-14T02:57:32.996Z,70.87
2022-12-14T03:00:36.955Z,69.56
2022-12-14T03:03:40.852Z,70.96
2022-12-14T03:06:45.208Z,71.33
2022-12-14T03:09:49.423Z,70.40
2022-12-14T03:12:53.385Z,70.56
2022-12-14T03:15:57.642Z,70.04
2022-12-14T03:19:01.424Z,69.35
2022-12-14T03:22:05.457Z,68.71
2022-12-14T03:25:09.444Z,69.18
2022-12-14T03:28:13.401Z,70.39
2022-12-14T03:31:17.562Z,69.80
2022-12-14T03:34:21.652Z,70.20
2022-12-14T03:37:25.904Z,69.42
2022-12-14T03:40:30.006Z,69.70
2022-12-14T03:43:33.948Z,71.26
2022-12-14T03:46:38.013Z,69.88
2022-12-14T03:49:42.219Z,69.95
2022-12-14T03:52:46.209Z,70.13
2022-12-14T03:55:50.137Z,70.63
2022-12-14T03:58:57.279Z,70.07
2022-12-14T04:02:01.562Z,69.43
2022-12-14T04:05:05.469Z,69.11
2022-12-14T04:08:09.716Z,69.87
2022-12-14T04:11:13.858Z,70.17
2022-12-14T04:14:17.713Z,70.01
2022-12-14T04:17:21.774Z,69.62
2022-12-14T04:20:25.855Z,70.72
2022-12-14T04:23:30.002Z,70.28
2022-12-14T04:26:33.810Z,69.60
2022-12-14T04:29:40.418Z,71.80
2022-12-14T04:32:46.807Z,72.29
2022-12-14T04:35:50.781Z,71.14
2022-12-14T04:38:54.618Z,72.82
2022-12-14T04:41:58.644Z,72.17
2022-12-14T04:45:02.581Z,71.40
2022-12-14T04:48:06.759Z,70.98
2022-12-14T04:51:10.954Z,71.15
2022-12-14T04:54:15.332Z,70.72
2022-12-14T04:57:19.634Z,70.65
2022-12-14T05:00:23.971Z,71.22
2022-12-14T05:03:28.219Z,70.99
2022-12-14T05:06:32.647Z,71.22
2022-12-14T05:09:36.804Z,71.62
2022-12-14T05:12:40.845Z,70.85
2022-12-14T05:15:45.045Z,70.32
2022-12-14T05:18:49.081Z,70.56
2022-12-14T05:21:53.173Z,71.73
2022-12-14T05:24:57.304Z,72.94
2022-12-14T05:28:01.348Z,73.28
2022-12-14T05:31:05.362Z,72.85
2022-12-14T05:34:09.538Z,72.16
2022-12-14T05:37:18.228Z,73.66
2022-12-14T05:40:22.412Z,72.69
2022-12-14T05:43:26.776Z,72.77
2022-12-14T05:46:30.982Z,74.13
2022-12-14T05:49:34.915Z,73.47
2022-12-14T05:52:38.926Z,71.45
2022-12-14T05:55:43.037Z,71.29
2022-12-14T05:58:47.500Z,73.18
2022-12-14T06:01:51.521Z,73.75
2022-12-14T06:04:55.515Z,71.97
2022-12-14T06:07:59.660Z,70.80
2022-12-14T06:11:03.987Z,70.65
2022-12-14T06:14:08.000Z,72.58
2022-12-14T06:17:12.012Z,71.04
2022-12-14T06:20:15.984Z,71.50
2022-12-14T06:23:20.010Z,70.78
2022-12-14T06:26:24.097Z,71.96
2022-12-14T06:29:28.085Z,71.04
2022-12-14T06:32:32.176Z,71.81
2022-12-14T06:35:36.269Z,70.89
2022-12-14T06:38:40.746Z,73.12
2022-12-14T06:41:44.746Z,72.04
2022-12-14T06:44:48.974Z,74.48
2022-12-14T06:47:53.035Z,73.09
2022-12-14T06:50:57.000Z,73.57
2022-12-14T06:54:01.145Z,72.29
2022-12-14T06:57:05.417Z,73.03
2022-12-14T07:00:09.245Z,72.87
2022-12-14T07:03:13.346Z,72.17
2022-12-14T07:06:17.419Z,73.80
2022-12-14T07:09:21.746Z,73.29
2022-12-14T07:12:25.423Z,71.11
2022-12-14T07:15:29.370Z,72.94
2022-12-14T07:18:33.577Z,71.33
2022-12-14T07:21:37.724Z,71.41
2022-12-14T07:24:41.646Z,71.65
2022-12-14T07:27:45.561Z,71.96
2022-12-14T07:30:49.696Z,72.97
2022-12-14T07:33:56.697Z,72.52
2022-12-14T07:37:00.789Z,73.30
2022-12-14T07:40:04.836Z,73.24
2022-12-14T07:43:08.643Z,72.93
2022-12-14T07:46:12.848Z,72.21
2022-12-14T07:49:16.981Z,72.16
2022-12-14T07:52:20.948Z,72.60
2022-12-14T07:55:25.009Z,73.27
2022-12-14T07:58:28.851Z,72.77
2022-12-14T08:01:33.047Z,71.83
2022-12-14T08:04:37.262Z,71.87
2022-12-14T08:07:41.273Z,71.69
2022-12-14T08:10:45.263Z,70.71
2022-12-14T08:13:49.448Z,71.58
2022-12-14T08:16:53.431Z,71.77
2022-12-14T08:19:57.764Z,72.41
2022-12-14T08:23:01.498Z,71.67
2022-12-14T08:26:05.436Z,71.29
2022-12-14T08:29:09.579Z,72.75
2022-12-14T08:32:13.905Z,71.58
2022-12-14T08:35:18.116Z,72.54
2022-12-14T08:38:22.037Z,72.62
2022-12-14T08:41:25.946Z,73.60
2022-12-14T08:44:30.112Z,72.27
2022-12-14T08:47:34.184Z,72.41
2022-12-14T08:50:37.942Z,71.86
2022-12-14T08:53:41.900Z,72.86
2022-12-14T08:56:45.940Z,71.29
2022-12-14T09:00:01.210Z,71.28
2022-12-14T09:03:06.051Z,70.85
2022-12-14T09:06:09.958Z,74.19
2022-12-14T09:09:16.713Z,73.30
2022-12-14T09:12:21.387Z,71.97
2022-12-14T09:15:25.391Z,71.46
2022-12-14T09:18:29.663Z,70.92
2022-12-14T09:21:33.831Z,70.35
2022-12-14T09:24:37.811Z,71.17
2022-12-14T09:27:41.850Z,70.65
2022-12-14T09:30:46.165Z,69.96
2022-12-14T09:33:50.225Z,71.68
2022-12-14T09:36:54.034Z,72.51
2022-12-14T09:39:57.968Z,73.09
2022-12-14T09:43:01.917Z,74.21
2022-12-14T09:46:09.108Z,73.19
2022-12-14T09:49:13.191Z,73.01
2022-12-14T09:52:17.166Z,74.24
2022-12-14T09:55:21.045Z,74.09
2022-12-14T09:58:25.054Z,74.26
2022-12-14T10:01:29.174Z,73.33
2022-12-14T10:04:33.111Z,72.29
2022-12-14T10:07:37.193Z,71.46
2022-12-14T10:10:41.121Z,72.40
2022-12-14T10:13:45.337Z,73.61
2022-12-14T10:16:52.128Z,75.44
2022-12-14T10:19:56.435Z,72.86
2022-12-14T10:23:00.302Z,72.21
2022-12-14T10:26:04.363Z,71.19
2022-12-14T10:29:08.523Z,71.34
2022-12-14T10:32:12.513Z,72.89
2022-12-14T10:35:16.231Z,71.00
2022-12-14T10:38:20.059Z,71.75
2022-12-14T10:41:24.187Z,71.59
2022-12-14T10:44:28.289Z,72.65
2022-12-14T10:47:32.260Z,70.72
2022-12-14T10:50:36.203Z,71.25
2022-12-14T10:53:41.178Z,70.31
2022-12-14T10:56:49.957Z,69.87
2022-12-14T11:00:07.910Z,69.50
2022-12-14T11:03:13.078Z,70.02
2022-12-14T11:06:16.947Z,69.13
2022-12-14T11:09:20.883Z,70.11
2022-12-14T11:12:24.641Z,69.71
2022-12-14T11:15:28.911Z,69.37
2022-12-14T11:18:35.960Z,70.79
2022-12-14T11:21:39.995Z,69.47
2022-12-14T11:24:44.108Z,70.08
2022-12-14T11:27:49.831Z,69.36
2022-12-14T11:30:53.838Z,68.56
2022-12-14T11:33:58.371Z,70.19
2022-12-14T11:37:02.274Z,69.39
2022-12-14T11:40:06.217Z,69.74
2022-12-14T11:43:10.117Z,68.52
2022-12-14T11:46:14.182Z,68.80
2022-12-14T11:49:18.096Z,68.91
2022-12-14T11:52:22.106Z,69.61
2022-12-14T11:55:27.303Z,69.89
2022-12-14T11:58:31.748Z,69.68
2022-12-14T12:01:35.895Z,69.09
2022-12-14T12:04:39.837Z,69.27
2022-12-14T12:07:43.786Z,70.28
2022-12-14T12:10:49.804Z,70.83
2022-12-14T12:13:54.278Z,71.46
2022-12-14T12:17:00.450Z,70.74
2022-12-14T12:20:04.574Z,70.09
2022-12-14T12:23:08.746Z,69.73
2022-12-14T12:26:12.685Z,69.40
2022-12-14T12:29:16.435Z,69.89
2022-12-14T12:32:20.530Z,70.09
2022-12-14T12:35:24.590Z,70.21
2022-12-14T12:38:28.975Z,70.65
2022-12-14T12:41:33.002Z,71.11
2022-12-14T12:44:36.998Z,70.44
2022-12-14T12:47:47.196Z,69.98
2022-12-14T12:50:51.612Z,70.12
2022-12-14T12:53:55.723Z,70.33
2022-12-14T12:56:59.756Z,70.46
2022-12-14T13:00:03.876Z,69.94
2022-12-14T13:03:07.859Z,71.06
2022-12-14T13:06:11.718Z,70.23
2022-12-14T13:09:15.844Z,70.02
2022-12-14T13:12:19.871Z,70.60
2022-12-14T13:15:23.626Z,69.69
2022-12-14T13:18:56.703Z,69.60
2022-12-14T13:21:51.743Z,70.39
2022-12-14T13:24:59.612Z,69.37
2022-12-14T13:28:04.066Z,70.60
2022-12-14T13:31:07.853Z,71.18
2022-12-14T13:34:11.885Z,69.79
2022-12-14T13:37:15.647Z,69.89
2022-12-14T13:40:19.684Z,69.32
2022-12-14T13:43:23.762Z,70.31
2022-12-14T13:46:28.025Z,70.59
2022-12-14T13:49:31.910Z,71.12
2022-12-14T13:52:35.843Z,71.07
2022-12-14T13:55:39.838Z,70.42
2022-12-14T13:58:44.085Z,71.08
2022-12-14T14:01:48.366Z,72.10
2022-12-14T14:04:52.425Z,71.96
2022-12-14T14:07:56.375Z,71.34
2022-12-14T14:11:28.591Z,71.96
2022-12-14T14:14:24.637Z,71.81
2022-12-14T14:17:28.974Z,72.19
2022-12-14T14:20:32.745Z,72.53
2022-12-14T14:23:36.823Z,72.21
2022-12-14T14:26:40.707Z,71.94
2022-12-14T14:29:44.928Z,71.15
2022-12-14T14:32:49.157Z,71.34
2022-12-14T14:35:53.136Z,71.65
2022-12-14T14:38:57.179Z,70.72
2022-12-14T14:42:01.372Z,71.49
2022-12-14T14:45:05.583Z,70.89
2022-12-14T14:48:09.697Z,70.34
2022-12-14T14:51:13.223Z,72.31
2022-12-14T14:54:44.913Z,70.99
2022-12-14T14:57:41.031Z,70.23
2022-12-14T15:00:45.293Z,70.18
2022-12-14T15:03:49.593Z,70.62
2022-12-14T15:06:53.514Z,71.85
2022-12-14T15:09:57.496Z,73.67
2022-12-14T15:13:01.593Z,74.49
2022-12-14T15:16:05.605Z,74.85
2022-12-14T15:19:09.631Z,73.51
2022-12-14T15:22:13.655Z,72.68
2022-12-14T15:25:17.778Z,72.09
2022-12-14T15:28:21.738Z,72.46
2022-12-14T15:31:25.816Z,73.05
2022-12-14T15:34:29.953Z,72.64
2022-12-14T15:37:33.853Z,71.95
2022-12-14T15:40:38.055Z,72.48
2022-12-14T15:43:42.083Z,72.22
2022-12-14T15:46:46.241Z,72.85
2022-12-14T15:49:54.530Z,72.66
2022-12-14T15:53:01.792Z,74.53
2022-12-14T15:56:11.703Z,74.46
2022-12-14T15:59:16.228Z,74.54
2022-12-14T16:02:20.214Z,74.86
2022-12-14T16:05:24.215Z,75.06
2022-12-14T16:08:28.404Z,74.19
2022-12-14T16:11:32.498Z,72.40
2022-12-14T16:14:36.783Z,72.28
2022-12-14T16:17:40.561Z,72.91
2022-12-14T16:20:44.750Z,71.25
2022-12-14T16:23:48.917Z,72.29
2022-12-14T16:26:52.970Z,72.06
2022-12-14T16:29:57.163Z,72.05
2022-12-14T16:33:01.058Z,72.23
2022-12-14T16:36:05.091Z,73.24
2022-12-14T16:39:09.170Z,73.44
2022-12-14T16:42:13.204Z,73.92
2022-12-14T16:45:17.258Z,73.17
2022-12-14T16:48:21.182Z,72.62
2022-12-14T16:51:44.872Z,72.68
2022-12-14T16:54:49.269Z,71.52
2022-12-14T16:57:53.956Z,72.71
2022-12-14T17:00:58.093Z,72.74
2022-12-14T17:04:01.986Z,73.92
2022-12-14T17:07:05.792Z,72.35
2022-12-14T17:10:09.842Z,72.81
2022-12-14T17:13:13.966Z,74.00
2022-12-14T17:16:18.140Z,73.52
2022-12-14T17:19:21.891Z,75.55
2022-12-14T17:22:25.861Z,74.04
2022-12-14T17:25:29.975Z,73.94
2022-12-14T17:28:33.975Z,72.89
2022-12-14T17:31:41.833Z,73.22
2022-12-14T17:34:48.654Z,73.15
2022-12-14T17:37:52.705Z,72.78
2022-12-14T17:40:56.621Z,73.83
2022-12-14T17:44:00.809Z,73.92
2022-12-14T17:47:04.946Z,73.59
2022-12-14T17:50:09.104Z,73.77
2022-12-14T17:53:13.151Z,73.47
2022-12-14T17:56:17.420Z,72.87
2022-12-14T17:59:21.794Z,72.43
2022-12-14T18:02:25.992Z,73.20
2022-12-14T18:05:30.075Z,74.12
2022-12-14T18:08:34.050Z,73.79
2022-12-14T18:11:54.264Z,72.27
2022-12-14T18:15:02.076Z,71.96
2022-12-14T18:18:06.209Z,73.54
2022-12-14T18:21:10.143Z,72.56
2022-12-14T18:24:15.332Z,72.78
2022-12-14T18:27:19.618Z,73.20
2022-12-14T18:30:23.873Z,72.67
2022-12-14T18:33:28.154Z,72.74
2022-12-14T18:36:32.275Z,72.63
2022-12-14T18:39:36.283Z,74.24
2022-12-14T18:42:40.432Z,76.23
2022-12-14T18:45:44.518Z,74.97
2022-12-14T18:48:48.622Z,76.58
2022-12-14T18:51:52.745Z,77.12
2022-12-14T18:54:56.617Z,78.05
2022-12-14T18:58:00.543Z,76.56
2022-12-14T19:01:04.691Z,77.91
2022-12-14T19:04:08.963Z,77.27
2022-12-14T19:07:13.091Z,77.62
2022-12-14T19:10:16.863Z,77.22
2022-12-14T19:13:25.434Z,78.27
2022-12-14T19:16:29.864Z,78.38
2022-12-14T19:19:39.569Z,76.80
2022-12-14T19:22:47.858Z,77.92
2022-12-14T19:25:51.851Z,77.56
2022-12-14T19:28:56.124Z,77.03
2022-12-14T19:32:05.092Z,77.05
2022-12-14T19:35:09.745Z,77.35
2022-12-14T19:38:13.855Z,78.30
2022-12-14T19:41:17.776Z,78.57
2022-12-14T19:44:21.826Z,78.27
2022-12-14T19:47:25.906Z,77.92
2022-12-14T19:50:29.964Z,77.37
2022-12-14T19:53:34.240Z,78.10
2022-12-14T19:56:38.152Z,77.93
2022-12-14T19:59:42.200Z,77.08
2022-12-14T20:02:50.051Z,76.03
2022-12-14T20:05:54.286Z,77.00
2022-12-14T20:08:58.156Z,76.54
2022-12-14T20:12:02.806Z,77.75
2022-12-14T20:15:06.904Z,77.77
2022-12-14T20:18:10.924Z,77.13
2022-12-14T20:21:20.168Z,76.65
2022-12-14T20:24:25.763Z,78.09
2022-12-14T20:27:29.892Z,78.16
2022-12-14T20:30:33.825Z,78.26
2022-12-14T20:33:38.753Z,77.63
2022-12-14T20:36:42.803Z,76.81
2022-12-14T20:39:46.712Z,77.71
2022-12-14T20:42:50.930Z,77.43
2022-12-14T20:45:54.971Z,79.03
2022-12-14T20:48:58.956Z,78.03
2022-12-14T20:52:02.916Z,78.30
2022-12-14T20:55:06.955Z,78.46
2022-12-14T20:58:10.986Z,78.67
2022-12-14T21:01:15.049Z,78.48
2022-12-14T21:04:19.092Z,78.15
2022-12-14T21:07:26.236Z,77.97
2022-12-14T21:10:30.663Z,79.42
2022-12-14T21:13:34.951Z,77.35
2022-12-14T21:16:38.921Z,76.98
2022-12-14T21:19:42.898Z,77.54
2022-12-14T21:22:47.043Z,77.13
2022-12-14T21:25:51.105Z,76.64
2022-12-14T21:28:55.162Z,76.28
2022-12-14T21:31:59.208Z,77.20
2022-12-14T21:35:02.942Z,77.11
2022-12-14T21:38:07.017Z,76.37
2022-12-14T21:41:11.054Z,77.06
2022-12-14T21:44:15.014Z,76.71
2022-12-14T21:47:19.037Z,76.37
2022-12-14T21:50:23.056Z,76.30
2022-12-14T21:53:33.261Z,76.70
2022-12-14T21:56:39.073Z,75.94
2022-12-14T21:59:43.036Z,75.97
2022-12-14T22:02:47.307Z,76.78
2022-12-14T22:05:50.931Z,75.88
2022-12-14T22:08:54.975Z,75.31
2022-12-14T22:11:58.923Z,76.58
2022-12-14T22:15:02.881Z,76.12
2022-12-14T22:18:06.854Z,77.12
2022-12-14T22:21:10.687Z,77.31
2022-12-14T22:24:14.613Z,77.28
2022-12-14T22:27:18.762Z,76.01
2022-12-14T22:30:25.925Z,75.85
2022-12-14T22:33:32.771Z,76.26
2022-12-14T22:36:37.024Z,76.18
2022-12-14T22:39:41.018Z,74.66
2022-12-14T22:42:45.089Z,75.98
2022-12-14T22:45:49.458Z,75.48
2022-12-14T22:48:53.224Z,75.53
2022-12-14T22:51:57.071Z,75.68
2022-12-14T22:55:00.902Z,75.65
2022-12-14T22:58:04.860Z,76.11
2022-12-14T23:01:08.874Z,76.80
2022-12-14T23:04:13.086Z,77.60
2022-12-14T23:07:16.895Z,75.80
2022-12-14T23:10:20.789Z,76.50
2022-12-14T23:13:24.914Z,77.22
2022-12-14T23:16:28.952Z,77.08
2022-12-14T23:19:32.839Z,77.48
2022-12-14T23:22:36.701Z,75.34
2022-12-14T23:25:40.512Z,75.56
2022-12-14T23:28:44.665Z,75.41
2022-12-14T23:31:53.821Z,75.93
2022-12-14T23:34:57.866Z,75.94
2022-12-14T23:38:01.875Z,76.25
2022-12-14T23:41:05.716Z,76.43
2022-12-14T23:44:09.726Z,76.68
2022-12-14T23:47:13.807Z,76.67
2022-12-14T23:50:17.947Z,77.19
2022-12-14T23:53:21.780Z,76.02
2022-12-14T23:56:25.718Z,76.14
2022-12-14T23:59:32.575Z,76.36
